Terminal Aerodrome Forecast
Issued by NWS Paducah, KY

Home | Current Version | Previous Version | Text Only | Print | Product List | Glossary On
Versions: 1 2 3 4 5 6 7 8 9 10 11 12 13 14 15 16 17 18
000
FTUS43 KPAH 241150
TAFPAH
TAF
KPAH 241150Z 2412/2512 04005KT P6SM SCT070
     FM241600 09005KT P6SM SCT030 BKN150
     FM241900 12006KT P6SM SCT030 BKN150
     FM250000 13006KT P6SM BKN040
     FM250500 21008KT P6SM SCT020 BKN035=

USA.gov is the U.S. government's official web portal to all federal, state and local government web resources and services.